首页
METAR-TAF:

METAR-TAF

机场 :

埃克塞特國際機場

埃克塞特, 英格兰

纬度: 50-44N, 经度: 003-25W, 海拔: 30米

当前天气观测

该预报发布于6小时和0分钟前的01:20 UTC
静风
温度 18°C
湿度 94%
气压 1014 hPa
能見度: 6000
多云层高于1200英尺

METAR: EGTE 150120Z 00000KT 6000 BKN012 18/17 Q1014

时间: 08:20 (07:20 UTC)

预报

该预报发布于8小时和25分钟前的22:55 UTC
预报有效从15日的 00点(UTC)到 15日的 02点(UTC)
风速2节,风向多变
能见度10公里或以上
散云层高于800英尺
多云层高于1600英尺
短暂存在
从 15日的 00点(UTC)到 15日的 02点(UTC)
能見度: 8000
多云层高于1200英尺
几率 30% :
短暂存在
从 15日的 00点(UTC)到 15日的 02点(UTC)
风速15节,风向多变,有时为25节阵风
能見度: 3000
雷暴, 大雨

TAF: EGTE 142255Z 1500/1502 VRB02KT 9999 SCT008 BKN016 TEMPO 1500/1502 8000 BKN012 PROB30 TEMPO 1500/1502 VRB15G25KT 3000 +TSRA

超过4000个机场的气象观测和天气预报(METAR&TAF报告)。

可查询的气象台以黄色和红色小点在地图上表示。

将鼠标移到小点上方,可查看气象台名称。

然后点击查看天气观测和预报。

如需切换地图:点击带黑十字的绿色按钮放大地图;点击带横线的绿色按钮缩小地图;或者点击绿色箭头查看邻近地区的地图。


METAR-TAF: